createdAt,value
2018-09-22T00:00:21.293Z,25.00
2018-09-22T00:01:24.435Z,25.00
2018-09-22T00:02:27.583Z,25.00
2018-09-22T00:03:30.632Z,25.00
2018-09-22T00:04:33.701Z,25.00
2018-09-22T00:05:36.748Z,25.00
2018-09-22T00:06:39.988Z,25.00
2018-09-22T00:07:43.024Z,25.00
2018-09-22T00:08:46.073Z,25.00
2018-09-22T00:09:49.172Z,25.00
2018-09-22T00:10:52.306Z,25.00
2018-09-22T00:11:55.893Z,25.00
2018-09-22T00:12:59.285Z,25.00
2018-09-22T00:14:02.416Z,25.00
2018-09-22T00:15:05.775Z,25.00
2018-09-22T00:16:09.752Z,25.00
2018-09-22T00:17:13.529Z,25.00
2018-09-22T00:18:16.885Z,25.00
2018-09-22T00:19:19.992Z,25.00
2018-09-22T00:20:23.626Z,25.00
2018-09-22T00:21:26.927Z,25.00
2018-09-22T00:22:30.191Z,25.00
2018-09-22T00:23:35.915Z,25.00
2018-09-22T00:24:39.219Z,25.00
2018-09-22T00:25:42.470Z,25.00
2018-09-22T00:26:45.595Z,25.00
2018-09-22T00:27:48.679Z,24.90
2018-09-22T00:28:52.021Z,24.90
2018-09-22T00:29:55.348Z,24.90
2018-09-22T00:30:58.512Z,24.90
2018-09-22T00:32:02.105Z,24.90
2018-09-22T00:33:05.952Z,24.90
2018-09-22T00:34:09.265Z,24.90
2018-09-22T00:35:12.714Z,24.90
2018-09-22T00:36:15.932Z,24.90
2018-09-22T00:37:19.117Z,24.90
2018-09-22T00:38:22.349Z,24.90
2018-09-22T00:39:26.845Z,24.90
2018-09-22T00:40:30.891Z,24.90
2018-09-22T00:41:33.965Z,24.90
2018-09-22T00:42:37.220Z,24.90
2018-09-22T00:43:40.977Z,24.90
2018-09-22T00:44:44.079Z,24.90
2018-09-22T00:45:47.325Z,24.90
2018-09-22T00:46:50.342Z,24.90
2018-09-22T00:47:53.326Z,24.90
2018-09-22T00:48:56.528Z,24.90
2018-09-22T00:50:00.882Z,24.90
2018-09-22T00:51:04.484Z,24.90
2018-09-22T00:52:07.564Z,24.90
2018-09-22T00:53:11.785Z,24.90
2018-09-22T00:54:14.873Z,25.50
2018-09-22T00:55:18.032Z,24.90
2018-09-22T00:56:21.036Z,24.90
2018-09-22T00:57:24.123Z,24.90
2018-09-22T00:58:27.132Z,24.90
2018-09-22T00:59:30.244Z,24.90
2018-09-22T01:00:33.364Z,24.90
2018-09-22T01:01:36.495Z,24.80
2018-09-22T01:02:39.768Z,24.90
2018-09-22T01:03:42.846Z,24.90
2018-09-22T01:04:46.110Z,24.90
2018-09-22T01:05:49.147Z,24.90
2018-09-22T01:06:52.396Z,24.90
2018-09-22T01:07:56.496Z,24.90
2018-09-22T01:09:00.960Z,24.80
2018-09-22T01:10:04.396Z,24.90
2018-09-22T01:11:07.706Z,24.80
2018-09-22T01:12:10.889Z,24.90
2018-09-22T01:13:14.226Z,24.90
2018-09-22T01:14:17.314Z,24.90
2018-09-22T01:15:20.800Z,24.80
2018-09-22T01:16:23.933Z,24.80
2018-09-22T01:17:26.936Z,24.80
2018-09-22T01:18:30.179Z,24.90
2018-09-22T01:19:33.337Z,24.90
2018-09-22T01:20:36.507Z,24.80
2018-09-22T01:21:39.816Z,24.80
2018-09-22T01:22:44.867Z,24.80
2018-09-22T01:23:47.956Z,24.80
2018-09-22T01:24:51.088Z,24.80
2018-09-22T01:25:54.267Z,24.80
2018-09-22T01:26:57.632Z,24.80
2018-09-22T01:28:00.744Z,24.80
2018-09-22T01:29:03.843Z,24.80
2018-09-22T01:30:07.057Z,24.80
2018-09-22T01:31:10.315Z,24.80
2018-09-22T01:32:13.728Z,24.80
2018-09-22T01:33:16.948Z,24.80
2018-09-22T01:34:20.079Z,24.80
2018-09-22T01:35:23.565Z,24.80
2018-09-22T01:36:26.675Z,24.80
2018-09-22T01:37:29.764Z,24.80
2018-09-22T01:38:33.110Z,24.80
2018-09-22T01:39:36.277Z,24.80
2018-09-22T01:40:39.665Z,24.80
2018-09-22T01:41:45.505Z,24.80
2018-09-22T01:42:49.588Z,24.80
2018-09-22T01:43:52.817Z,24.80
2018-09-22T01:44:55.923Z,24.80
2018-09-22T01:45:59.408Z,24.80
2018-09-22T01:47:02.668Z,24.80
2018-09-22T01:48:06.309Z,24.80
2018-09-22T01:49:09.718Z,24.80
2018-09-22T01:50:12.983Z,24.80
2018-09-22T01:51:16.471Z,24.80
2018-09-22T01:52:19.646Z,24.80
2018-09-22T01:53:22.720Z,24.80
2018-09-22T01:54:25.906Z,24.80
2018-09-22T01:55:29.039Z,24.80
2018-09-22T01:56:32.225Z,24.80
2018-09-22T01:57:35.499Z,24.80
2018-09-22T01:58:38.636Z,24.80
2018-09-22T01:59:41.848Z,24.80
2018-09-22T02:00:44.983Z,24.80
2018-09-22T02:01:48.125Z,24.80
2018-09-22T02:02:51.220Z,25.30
2018-09-22T02:03:54.432Z,24.80
2018-09-22T02:04:57.565Z,24.80
2018-09-22T02:06:00.691Z,24.80
2018-09-22T02:07:03.981Z,24.80
2018-09-22T02:08:07.444Z,24.80
2018-09-22T02:09:11.219Z,24.80
2018-09-22T02:10:14.475Z,24.80
2018-09-22T02:11:17.965Z,24.80
2018-09-22T02:12:21.176Z,24.80
2018-09-22T02:13:24.300Z,24.80
2018-09-22T02:14:27.527Z,24.80
2018-09-22T02:15:30.788Z,24.80
2018-09-22T02:16:33.935Z,24.80
2018-09-22T02:17:37.289Z,24.80
2018-09-22T02:18:40.428Z,24.80
2018-09-22T02:19:43.704Z,24.80
2018-09-22T02:20:47.025Z,24.80
2018-09-22T02:21:50.104Z,24.80
2018-09-22T02:22:53.469Z,24.80
2018-09-22T02:23:56.868Z,24.80
2018-09-22T02:25:00.236Z,24.80
2018-09-22T02:26:03.400Z,24.80
2018-09-22T02:27:06.928Z,24.80
2018-09-22T02:28:10.329Z,24.80
2018-09-22T02:29:13.667Z,24.80
2018-09-22T02:30:16.997Z,24.80
2018-09-22T02:31:20.214Z,24.80
2018-09-22T02:32:23.672Z,24.80
2018-09-22T02:33:26.902Z,24.80
2018-09-22T02:34:30.347Z,24.80
2018-09-22T02:35:33.655Z,24.80
2018-09-22T02:36:36.674Z,24.80
2018-09-22T02:37:39.972Z,24.80
2018-09-22T02:38:43.386Z,24.80
2018-09-22T02:39:46.493Z,24.80
2018-09-22T02:40:49.685Z,24.80
2018-09-22T02:41:52.762Z,24.80
2018-09-22T02:42:55.899Z,24.80
2018-09-22T02:43:59.109Z,24.80
2018-09-22T02:45:02.374Z,24.80
2018-09-22T02:46:05.859Z,24.80
2018-09-22T02:47:09.097Z,24.80
2018-09-22T02:48:12.150Z,24.80
2018-09-22T02:49:15.439Z,24.80
2018-09-22T02:50:19.725Z,24.80
2018-09-22T02:51:23.075Z,24.80
2018-09-22T02:52:30.811Z,24.80
2018-09-22T02:53:44.558Z,24.80
2018-09-22T02:54:51.613Z,24.80
2018-09-22T02:55:56.865Z,24.80
2018-09-22T02:57:00.150Z,24.80
2018-09-22T02:58:03.332Z,24.80
2018-09-22T02:59:06.863Z,24.80
2018-09-22T03:00:10.068Z,24.70
2018-09-22T03:01:13.360Z,24.70
2018-09-22T03:02:16.729Z,24.70
2018-09-22T03:03:19.948Z,24.80
2018-09-22T03:04:23.244Z,24.80
2018-09-22T03:05:26.705Z,24.70
2018-09-22T03:06:30.011Z,24.70
2018-09-22T03:07:33.583Z,24.70
2018-09-22T03:08:37.087Z,24.80
2018-09-22T03:09:40.238Z,24.70
2018-09-22T03:10:43.423Z,24.70
2018-09-22T03:11:46.585Z,24.80
2018-09-22T03:12:49.797Z,24.80
2018-09-22T03:13:53.190Z,24.80
2018-09-22T03:14:56.284Z,24.80
2018-09-22T03:15:59.449Z,24.70
2018-09-22T03:17:02.562Z,24.70
2018-09-22T03:18:05.703Z,24.80
2018-09-22T03:19:08.747Z,24.70
2018-09-22T03:20:12.084Z,24.80
2018-09-22T03:21:15.622Z,24.80
2018-09-22T03:22:18.959Z,24.80
2018-09-22T03:23:22.337Z,24.80
2018-09-22T03:24:25.464Z,24.80
2018-09-22T03:25:30.022Z,24.70
2018-09-22T03:26:34.031Z,24.80
2018-09-22T03:27:37.101Z,24.80
2018-09-22T03:28:40.125Z,24.80
2018-09-22T03:29:43.295Z,24.80
2018-09-22T03:30:46.408Z,24.80
2018-09-22T03:31:49.593Z,24.80
2018-09-22T03:32:52.564Z,24.80
2018-09-22T03:33:55.795Z,24.80
2018-09-22T03:34:58.893Z,24.80
2018-09-22T03:36:02.052Z,24.70
2018-09-22T03:37:05.281Z,24.80
2018-09-22T03:38:08.499Z,24.80
2018-09-22T03:39:11.949Z,24.80
2018-09-22T03:40:15.057Z,24.80
2018-09-22T03:41:18.168Z,24.80
2018-09-22T03:42:21.430Z,24.80
2018-09-22T03:43:24.506Z,24.80
2018-09-22T03:44:27.761Z,24.80
2018-09-22T03:45:30.840Z,24.80
2018-09-22T03:46:33.915Z,24.80
2018-09-22T03:47:37.117Z,24.70
2018-09-22T03:48:40.286Z,24.80
2018-09-22T03:49:43.332Z,24.80
2018-09-22T03:50:46.605Z,24.70
2018-09-22T03:51:49.817Z,24.70
2018-09-22T03:52:52.814Z,24.70
2018-09-22T03:53:55.906Z,24.70
2018-09-22T03:54:58.948Z,24.70
2018-09-22T03:56:02.156Z,24.70
2018-09-22T03:57:05.463Z,24.70
2018-09-22T03:58:08.653Z,24.30
2018-09-22T03:59:11.885Z,24.70
2018-09-22T04:00:14.969Z,24.70
2018-09-22T04:01:18.028Z,24.70
2018-09-22T04:02:21.231Z,24.70
2018-09-22T04:03:24.348Z,24.70
2018-09-22T04:04:27.546Z,24.70
2018-09-22T04:05:30.909Z,24.70
2018-09-22T04:06:34.456Z,24.70
2018-09-22T04:07:37.677Z,24.70
2018-09-22T04:08:40.744Z,24.70
2018-09-22T04:09:43.994Z,24.70
2018-09-22T04:10:47.298Z,24.70
2018-09-22T04:11:51.842Z,24.70
2018-09-22T04:12:55.137Z,24.70
2018-09-22T04:13:58.586Z,24.70
2018-09-22T04:15:02.065Z,24.70
2018-09-22T04:16:05.468Z,24.70
2018-09-22T04:17:08.800Z,24.70
2018-09-22T04:18:11.905Z,24.70
2018-09-22T04:19:15.162Z,24.70
2018-09-22T04:20:18.379Z,24.70
2018-09-22T04:21:21.649Z,24.70
2018-09-22T04:22:24.733Z,24.70
2018-09-22T04:23:27.783Z,24.70
2018-09-22T04:24:30.835Z,24.70
2018-09-22T04:25:34.049Z,24.70
2018-09-22T04:26:37.126Z,24.70
2018-09-22T04:27:40.285Z,24.70
2018-09-22T04:28:43.388Z,24.70
2018-09-22T04:29:46.425Z,24.70
2018-09-22T04:30:49.516Z,24.70
2018-09-22T04:31:52.648Z,24.70
2018-09-22T04:32:55.751Z,24.70
2018-09-22T04:33:59.730Z,24.70
2018-09-22T04:35:02.932Z,24.70
2018-09-22T04:36:06.250Z,24.70
2018-09-22T04:37:09.560Z,24.70
2018-09-22T04:38:12.913Z,24.70
2018-09-22T04:39:16.337Z,24.70
2018-09-22T04:40:19.532Z,24.70
2018-09-22T04:41:22.741Z,24.70
2018-09-22T04:42:26.012Z,24.70
2018-09-22T04:43:29.274Z,24.70
2018-09-22T04:44:32.560Z,24.70
2018-09-22T04:45:36.113Z,24.70
2018-09-22T04:46:39.296Z,24.70
2018-09-22T04:47:42.428Z,24.70
2018-09-22T04:48:45.658Z,24.70
2018-09-22T04:49:48.764Z,24.70
2018-09-22T04:50:51.869Z,24.70
2018-09-22T04:51:54.831Z,24.70
2018-09-22T04:52:57.916Z,24.70
2018-09-22T04:54:00.980Z,24.70
2018-09-22T04:55:04.274Z,24.70
2018-09-22T04:56:07.382Z,24.70
2018-09-22T04:57:10.540Z,24.70
2018-09-22T04:58:13.596Z,24.70
2018-09-22T04:59:16.646Z,24.70
2018-09-22T05:00:19.844Z,24.70
2018-09-22T05:01:22.928Z,24.70
2018-09-22T05:02:26.131Z,24.70
2018-09-22T05:03:29.609Z,24.70
2018-09-22T05:04:32.831Z,24.70
2018-09-22T05:05:36.123Z,24.70
2018-09-22T05:06:39.338Z,24.60
2018-09-22T05:07:42.537Z,24.70
2018-09-22T05:08:45.699Z,24.60
2018-09-22T05:09:49.071Z,24.60
2018-09-22T05:10:52.243Z,24.60
2018-09-22T05:11:55.395Z,24.60
2018-09-22T05:12:58.565Z,24.60
2018-09-22T05:14:01.791Z,24.70
2018-09-22T05:15:04.965Z,24.60
2018-09-22T05:16:08.530Z,24.70
2018-09-22T05:17:11.539Z,24.60
2018-09-22T05:18:14.573Z,24.60
2018-09-22T05:19:17.712Z,24.60
2018-09-22T05:20:20.880Z,24.60
2018-09-22T05:21:24.211Z,24.60
2018-09-22T05:22:27.304Z,24.60
2018-09-22T05:23:30.355Z,24.60
2018-09-22T05:24:33.373Z,24.60
2018-09-22T05:25:36.408Z,24.60
2018-09-22T05:26:39.620Z,24.60
2018-09-22T05:27:42.741Z,24.60
2018-09-22T05:28:45.910Z,24.60
2018-09-22T05:29:48.951Z,24.60
2018-09-22T05:30:51.995Z,24.60
2018-09-22T05:31:55.105Z,24.60
2018-09-22T05:32:58.175Z,24.60
2018-09-22T05:34:01.211Z,24.60
2018-09-22T05:35:04.372Z,24.60
2018-09-22T05:36:07.520Z,24.60
2018-09-22T05:37:10.681Z,24.60
2018-09-22T05:38:14.198Z,24.60
2018-09-22T05:39:17.209Z,24.60
2018-09-22T05:40:20.353Z,24.60
2018-09-22T05:41:23.453Z,24.60
2018-09-22T05:42:26.561Z,24.60
2018-09-22T05:43:29.623Z,24.60
2018-09-22T05:44:32.728Z,24.60
2018-09-22T05:45:35.788Z,24.60
2018-09-22T05:46:38.952Z,24.60
2018-09-22T05:47:42.265Z,24.60
2018-09-22T05:48:45.365Z,24.00
2018-09-22T05:49:48.452Z,24.60
2018-09-22T05:50:51.604Z,24.60
2018-09-22T05:51:54.768Z,24.60
2018-09-22T05:52:58.110Z,24.60
2018-09-22T05:54:01.297Z,24.60
2018-09-22T05:55:04.352Z,24.60
2018-09-22T05:56:07.657Z,24.60
2018-09-22T05:57:10.792Z,24.60
2018-09-22T05:58:14.213Z,24.60
2018-09-22T05:59:17.622Z,24.60
2018-09-22T06:00:20.703Z,24.60
2018-09-22T06:01:23.937Z,24.60
2018-09-22T06:02:26.960Z,24.60
2018-09-22T06:03:30.241Z,24.60
2018-09-22T06:04:33.356Z,24.60
2018-09-22T06:05:36.660Z,24.60
2018-09-22T06:06:39.788Z,24.60
2018-09-22T06:07:42.945Z,24.60
2018-09-22T06:08:46.292Z,24.60
2018-09-22T06:09:49.460Z,24.60
2018-09-22T06:10:52.579Z,24.60
2018-09-22T06:11:55.645Z,24.60
2018-09-22T06:12:59.099Z,24.60
2018-09-22T06:14:02.948Z,24.60
2018-09-22T06:15:06.851Z,24.60
2018-09-22T06:16:10.009Z,24.60
2018-09-22T06:17:13.304Z,24.60
2018-09-22T06:18:16.475Z,24.60
2018-09-22T06:19:19.677Z,24.60
2018-09-22T06:20:22.764Z,24.60
2018-09-22T06:21:25.909Z,24.60
2018-09-22T06:22:29.072Z,24.60
2018-09-22T06:23:32.202Z,24.60
2018-09-22T06:24:35.389Z,24.60
2018-09-22T06:25:38.601Z,24.60
2018-09-22T06:26:41.772Z,24.60
2018-09-22T06:27:44.929Z,24.60
2018-09-22T06:28:48.250Z,24.60
2018-09-22T06:29:51.463Z,24.60
2018-09-22T06:30:54.633Z,24.60
2018-09-22T06:31:57.704Z,24.60
2018-09-22T06:33:00.757Z,24.60
2018-09-22T06:34:04.225Z,24.60
2018-09-22T06:35:07.308Z,24.60
2018-09-22T06:36:10.434Z,24.60
2018-09-22T06:37:13.532Z,24.60
2018-09-22T06:38:16.691Z,24.60
2018-09-22T06:39:19.655Z,24.60
2018-09-22T06:40:22.628Z,24.60
2018-09-22T06:41:25.631Z,24.60
2018-09-22T06:42:28.656Z,24.60
2018-09-22T06:43:31.632Z,24.60
2018-09-22T06:44:34.629Z,24.60
2018-09-22T06:45:37.697Z,24.60
2018-09-22T06:46:40.676Z,24.60
2018-09-22T06:47:43.745Z,24.70
2018-09-22T06:48:46.716Z,24.60
2018-09-22T06:49:50.150Z,24.60
2018-09-22T06:50:53.161Z,24.60
2018-09-22T06:51:56.177Z,24.60
2018-09-22T06:52:59.177Z,24.60
2018-09-22T06:54:02.149Z,24.60
2018-09-22T06:55:05.113Z,24.60
2018-09-22T06:56:08.100Z,24.60
2018-09-22T06:57:11.051Z,24.60
2018-09-22T06:58:14.101Z,24.60
2018-09-22T06:59:17.095Z,24.60
2018-09-22T07:00:20.063Z,24.60
2018-09-22T07:01:23.060Z,24.60
2018-09-22T07:02:26.028Z,24.60
2018-09-22T07:03:28.992Z,24.50
2018-09-22T07:04:31.969Z,24.50
2018-09-22T07:05:34.935Z,24.50
2018-09-22T07:06:37.979Z,24.50
2018-09-22T07:07:40.976Z,24.50
2018-09-22T07:08:43.964Z,24.40
2018-09-22T07:09:46.952Z,24.40
2018-09-22T07:10:50.252Z,24.40
2018-09-22T07:11:54.169Z,24.40
2018-09-22T07:12:57.197Z,24.40
2018-09-22T07:14:00.169Z,24.40
2018-09-22T07:15:03.163Z,24.40
2018-09-22T07:16:06.169Z,24.30
2018-09-22T07:17:09.160Z,24.30
2018-09-22T07:18:12.208Z,24.30
2018-09-22T07:19:15.197Z,24.20
2018-09-22T07:20:18.188Z,24.20
2018-09-22T07:21:26.529Z,24.20
2018-09-22T07:22:34.876Z,24.20
2018-09-22T07:23:37.839Z,24.20
2018-09-22T07:24:40.860Z,24.10
2018-09-22T07:25:43.832Z,24.10
2018-09-22T07:26:46.824Z,24.10
2018-09-22T07:27:49.851Z,24.10
2018-09-22T07:28:52.831Z,24.10
2018-09-22T07:29:55.824Z,24.10
2018-09-22T07:30:59.208Z,24.10
2018-09-22T07:32:02.020Z,24.00
2018-09-22T07:33:04.971Z,24.00
2018-09-22T07:34:07.940Z,24.00
2018-09-22T07:35:10.887Z,24.00
2018-09-22T07:36:13.860Z,24.00
2018-09-22T07:37:16.823Z,24.00
2018-09-22T07:38:19.819Z,24.00
2018-09-22T07:39:22.824Z,23.90
2018-09-22T07:40:25.777Z,23.90
2018-09-22T07:41:28.748Z,23.90
2018-09-22T07:42:31.712Z,23.90
2018-09-22T07:43:34.744Z,23.90
2018-09-22T07:44:37.771Z,23.90
2018-09-22T07:45:40.769Z,23.90
2018-09-22T07:46:43.752Z,23.90
2018-09-22T07:47:46.712Z,23.90
2018-09-22T07:48:49.728Z,23.90
2018-09-22T07:49:52.691Z,23.90
2018-09-22T07:50:55.665Z,23.90
2018-09-22T07:51:58.641Z,23.90
2018-09-22T07:53:01.601Z,23.90
2018-09-22T07:54:04.576Z,23.90
2018-09-22T07:55:07.550Z,23.90
2018-09-22T07:56:10.513Z,23.90
2018-09-22T07:57:13.510Z,23.90
2018-09-22T07:58:16.464Z,23.90
2018-09-22T07:59:19.445Z,23.90
2018-09-22T08:00:22.481Z,23.80
2018-09-22T08:01:25.836Z,23.80
2018-09-22T08:02:28.839Z,23.80
2018-09-22T08:03:31.975Z,23.80
2018-09-22T08:04:35.196Z,23.80
2018-09-22T08:05:38.200Z,23.80
2018-09-22T08:06:41.173Z,23.90
2018-09-22T08:07:44.151Z,23.90
2018-09-22T08:08:47.149Z,24.00
2018-09-22T08:09:50.146Z,24.00
2018-09-22T08:10:53.292Z,24.00
2018-09-22T08:11:57.952Z,24.00
2018-09-22T08:13:01.106Z,24.00
2018-09-22T08:14:04.084Z,24.00
2018-09-22T08:15:07.714Z,24.00
2018-09-22T08:16:10.794Z,24.10
2018-09-22T08:17:13.763Z,24.10
2018-09-22T08:18:16.765Z,24.10
2018-09-22T08:19:19.759Z,24.10
2018-09-22T08:20:22.745Z,24.20
2018-09-22T08:21:25.732Z,24.20
2018-09-22T08:22:28.710Z,24.20
2018-09-22T08:23:31.731Z,24.20
2018-09-22T08:24:34.716Z,24.20
2018-09-22T08:25:37.684Z,24.20
2018-09-22T08:26:40.696Z,24.30
2018-09-22T08:27:43.661Z,24.30
2018-09-22T08:28:46.656Z,24.30
2018-09-22T08:29:49.628Z,24.40
2018-09-22T08:30:52.611Z,24.40
2018-09-22T08:31:55.588Z,24.50
2018-09-22T08:32:58.574Z,24.50
2018-09-22T08:34:01.603Z,24.50
2018-09-22T08:35:04.616Z,24.50
2018-09-22T08:36:07.754Z,24.60
2018-09-22T08:37:10.709Z,24.70
2018-09-22T08:38:13.551Z,24.70
2018-09-22T08:39:16.532Z,24.70
2018-09-22T08:40:19.512Z,24.80
2018-09-22T08:41:22.488Z,24.80
2018-09-22T08:42:25.456Z,24.80
2018-09-22T08:43:28.436Z,24.90
2018-09-22T08:44:31.427Z,24.90
2018-09-22T08:45:34.393Z,24.90
2018-09-22T08:46:37.657Z,25.00
2018-09-22T08:47:40.639Z,25.00
2018-09-22T08:48:43.608Z,25.10
2018-09-22T08:49:46.653Z,25.10
2018-09-22T08:50:49.604Z,25.20
2018-09-22T08:51:52.560Z,25.20
2018-09-22T08:52:55.555Z,25.30
2018-09-22T08:53:58.547Z,25.30
2018-09-22T08:55:01.517Z,25.30
2018-09-22T08:56:04.492Z,25.30
2018-09-22T08:57:07.721Z,25.30
2018-09-22T08:58:10.698Z,25.40
2018-09-22T08:59:13.684Z,25.40
2018-09-22T09:00:16.672Z,25.40
2018-09-22T09:01:42.020Z,25.40
2018-09-22T09:03:05.841Z,25.40
2018-09-22T09:04:28.038Z,25.50
2018-09-22T09:05:56.184Z,25.40
2018-09-22T09:07:21.555Z,25.40
2018-09-22T09:08:46.624Z,25.40
2018-09-22T09:10:11.297Z,25.40
2018-09-22T09:11:35.300Z,25.40
2018-09-22T09:14:18.363Z,25.40
2018-09-22T09:15:21.348Z,25.40
2018-09-22T09:16:24.324Z,25.30
2018-09-22T09:17:39.204Z,25.40
2018-09-22T09:18:47.855Z,25.30
2018-09-22T09:20:03.232Z,25.30
2018-09-22T09:21:26.955Z,25.30
2018-09-22T09:22:44.189Z,25.40
2018-09-22T09:24:14.016Z,25.30
2018-09-22T09:25:19.831Z,25.30
2018-09-22T09:26:25.413Z,25.30
2018-09-22T09:27:28.837Z,25.30
2018-09-22T09:28:32.064Z,25.30
2018-09-22T09:29:35.375Z,25.40
2018-09-22T09:30:38.808Z,25.40
2018-09-22T09:31:43.805Z,25.40
2018-09-22T09:32:47.082Z,25.40
2018-09-22T09:33:50.895Z,25.40
2018-09-22T09:34:54.176Z,25.40
2018-09-22T09:36:03.472Z,25.40
2018-09-22T09:37:06.711Z,25.40
2018-09-22T09:38:31.874Z,25.50
2018-09-22T09:39:49.228Z,25.50
2018-09-22T09:41:17.593Z,25.50
2018-09-22T09:42:21.790Z,25.50
2018-09-22T09:43:28.235Z,25.60
2018-09-22T09:44:31.864Z,25.60
2018-09-22T09:45:35.316Z,25.60
2018-09-22T09:46:38.779Z,25.60
2018-09-22T09:47:42.277Z,25.60
2018-09-22T09:48:46.636Z,25.60
2018-09-22T09:49:50.261Z,25.60
2018-09-22T09:50:53.622Z,25.40
2018-09-22T09:52:03.632Z,25.60
2018-09-22T09:53:07.129Z,25.60
2018-09-22T09:54:12.406Z,25.60
2018-09-22T09:55:20.864Z,25.60
2018-09-22T09:56:32.220Z,25.60
2018-09-22T09:57:36.142Z,25.60
2018-09-22T09:58:39.285Z,25.60
2018-09-22T09:59:42.580Z,25.60
2018-09-22T10:00:46.679Z,25.60
2018-09-22T10:01:51.117Z,25.60
2018-09-22T10:02:54.265Z,25.60
2018-09-22T10:03:57.270Z,25.70
2018-09-22T10:05:00.254Z,25.60
2018-09-22T10:06:03.221Z,25.50
2018-09-22T10:07:06.359Z,25.50
2018-09-22T10:08:09.341Z,25.40
2018-09-22T10:09:12.333Z,25.40
2018-09-22T10:10:15.313Z,25.30
2018-09-22T10:11:18.371Z,25.20
2018-09-22T10:12:21.417Z,25.20
2018-09-22T10:13:24.376Z,25.10
2018-09-22T10:14:27.339Z,25.00
2018-09-22T10:15:30.998Z,24.90
2018-09-22T10:16:33.991Z,24.80
2018-09-22T10:17:36.951Z,24.70
2018-09-22T10:18:39.952Z,25.20
2018-09-22T10:19:42.940Z,24.60
2018-09-22T10:20:45.915Z,25.10
2018-09-22T10:21:48.876Z,24.40
2018-09-22T10:22:51.884Z,24.40
2018-09-22T10:23:54.839Z,24.30
2018-09-22T10:24:58.139Z,24.30
2018-09-22T10:26:01.194Z,24.20
2018-09-22T10:27:04.160Z,24.20
2018-09-22T10:28:07.159Z,24.20
2018-09-22T10:29:10.121Z,24.20
2018-09-22T10:30:13.091Z,24.20
2018-09-22T10:31:16.071Z,24.20
2018-09-22T10:32:19.045Z,24.20
2018-09-22T10:33:22.017Z,24.20
2018-09-22T10:34:24.996Z,24.20
2018-09-22T10:35:27.963Z,24.20
2018-09-22T10:36:31.057Z,24.20
2018-09-22T10:37:34.275Z,24.30
2018-09-22T10:38:37.276Z,24.30
2018-09-22T10:39:40.280Z,24.40
2018-09-22T10:40:43.258Z,24.40
2018-09-22T10:41:46.241Z,24.50
2018-09-22T10:42:49.215Z,24.60
2018-09-22T10:43:52.187Z,24.60
2018-09-22T10:44:55.178Z,24.70
2018-09-22T10:45:58.159Z,24.70
2018-09-22T10:47:01.140Z,24.80
2018-09-22T10:48:04.116Z,24.90
2018-09-22T10:49:07.089Z,24.90
2018-09-22T10:50:10.085Z,24.90
2018-09-22T10:51:13.052Z,25.00
2018-09-22T10:52:16.007Z,25.00
2018-09-22T10:53:18.981Z,25.10
2018-09-22T10:54:22.279Z,25.10
2018-09-22T10:55:25.285Z,25.10
2018-09-22T10:56:28.247Z,25.20
2018-09-22T10:57:31.220Z,25.20
2018-09-22T10:58:34.217Z,25.20
2018-09-22T10:59:37.192Z,25.20
2018-09-22T11:00:40.162Z,25.20
2018-09-22T11:01:43.121Z,25.30
2018-09-22T11:02:46.086Z,25.30
2018-09-22T11:03:49.047Z,25.30
2018-09-22T11:04:52.037Z,25.30
2018-09-22T11:05:55.003Z,25.40
2018-09-22T11:06:57.980Z,25.30
2018-09-22T11:08:01.212Z,25.40
2018-09-22T11:09:06.195Z,25.40
2018-09-22T11:10:09.268Z,25.40
2018-09-22T11:11:12.157Z,25.40
2018-09-22T11:12:15.129Z,25.40
2018-09-22T11:13:18.114Z,25.40
2018-09-22T11:14:21.076Z,25.50
2018-09-22T11:15:24.052Z,25.50
2018-09-22T11:16:27.059Z,25.40
2018-09-22T11:17:30.773Z,25.50
2018-09-22T11:18:33.984Z,25.50
2018-09-22T11:19:36.955Z,25.50
2018-09-22T11:20:39.944Z,25.50
2018-09-22T11:21:42.931Z,25.50
2018-09-22T11:22:45.896Z,25.60
2018-09-22T11:23:53.553Z,25.50
2018-09-22T11:24:56.526Z,25.50
2018-09-22T11:25:59.492Z,25.50
2018-09-22T11:27:02.601Z,25.60
2018-09-22T11:28:05.504Z,25.60
2018-09-22T11:29:08.478Z,25.60
2018-09-22T11:30:11.484Z,25.60
2018-09-22T11:31:14.476Z,25.60
2018-09-22T11:32:18.172Z,25.60
2018-09-22T11:33:21.173Z,25.60
2018-09-22T11:34:24.142Z,25.60
2018-09-22T11:35:27.108Z,25.60
2018-09-22T11:36:30.111Z,25.60
2018-09-22T11:37:33.115Z,25.60
2018-09-22T11:38:36.432Z,25.60
2018-09-22T11:39:39.409Z,25.60
2018-09-22T11:40:42.380Z,25.70
2018-09-22T11:41:46.354Z,25.70
2018-09-22T11:42:49.321Z,25.70
2018-09-22T11:43:52.284Z,25.70
2018-09-22T11:44:55.289Z,25.70
2018-09-22T11:45:58.248Z,25.70
2018-09-22T11:47:01.220Z,25.70
2018-09-22T11:48:04.201Z,25.70
2018-09-22T11:49:07.156Z,25.70
2018-09-22T11:50:10.121Z,25.70
2018-09-22T11:51:13.156Z,25.70
2018-09-22T11:52:16.146Z,25.70
2018-09-22T11:53:19.126Z,25.70
2018-09-22T11:54:22.132Z,25.70
2018-09-22T11:55:25.100Z,25.70
2018-09-22T11:56:28.103Z,25.60
2018-09-22T11:57:31.056Z,25.60
2018-09-22T11:58:34.025Z,25.60
2018-09-22T11:59:37.016Z,25.60
2018-09-22T12:00:40.035Z,25.60
2018-09-22T12:01:43.013Z,25.60
2018-09-22T12:02:45.991Z,25.60
2018-09-22T12:03:48.969Z,25.60
2018-09-22T12:04:51.945Z,25.60
2018-09-22T12:05:55.019Z,25.60
2018-09-22T12:06:57.968Z,25.60
2018-09-22T12:08:00.933Z,25.60
2018-09-22T12:09:05.836Z,25.60
2018-09-22T12:10:08.842Z,25.60
2018-09-22T12:11:11.834Z,25.60
2018-09-22T12:12:14.813Z,25.70
2018-09-22T12:13:17.912Z,25.70
2018-09-22T12:14:20.912Z,25.70
2018-09-22T12:15:23.871Z,25.70
2018-09-22T12:16:26.848Z,25.70
2018-09-22T12:17:29.860Z,25.80
2018-09-22T12:18:32.845Z,25.70
2018-09-22T12:19:35.844Z,25.80
2018-09-22T12:20:38.830Z,25.80
2018-09-22T12:21:41.832Z,25.80
2018-09-22T12:22:44.799Z,25.80
2018-09-22T12:23:47.773Z,25.80
2018-09-22T12:24:50.740Z,25.80
2018-09-22T12:25:53.739Z,25.80
2018-09-22T12:26:56.692Z,25.80
2018-09-22T12:27:59.676Z,25.80
2018-09-22T12:29:02.642Z,25.80
2018-09-22T12:30:05.948Z,25.80
2018-09-22T12:31:08.920Z,25.80
2018-09-22T12:32:11.879Z,25.80
2018-09-22T12:33:14.852Z,25.80
2018-09-22T12:34:17.816Z,25.80
2018-09-22T12:35:20.896Z,25.80
2018-09-22T12:36:23.877Z,25.80
2018-09-22T12:37:26.849Z,25.80
2018-09-22T12:38:29.833Z,25.90
2018-09-22T12:39:32.796Z,25.80
2018-09-22T12:40:35.780Z,25.80
2018-09-22T12:41:39.171Z,25.80
2018-09-22T12:42:42.161Z,25.90
2018-09-22T12:43:45.160Z,25.80
2018-09-22T12:44:48.152Z,25.80
2018-09-22T12:45:51.116Z,25.80
2018-09-22T12:46:54.088Z,25.90
2018-09-22T12:47:57.053Z,25.80
2018-09-22T12:49:00.023Z,25.90
2018-09-22T12:50:02.994Z,25.90
2018-09-22T12:51:05.979Z,25.90
2018-09-22T12:52:08.972Z,25.90
2018-09-22T12:53:11.957Z,25.90
2018-09-22T12:54:14.932Z,25.90
2018-09-22T12:55:17.934Z,25.90
2018-09-22T12:56:20.896Z,25.90
2018-09-22T12:57:23.869Z,25.90
2018-09-22T12:58:26.833Z,25.90
2018-09-22T12:59:29.807Z,25.90
2018-09-22T13:00:32.792Z,25.90
2018-09-22T13:01:35.755Z,25.90
2018-09-22T13:02:38.736Z,25.90
2018-09-22T13:03:41.772Z,25.90
2018-09-22T13:04:44.724Z,25.90
2018-09-22T13:05:47.890Z,25.90
2018-09-22T13:06:50.901Z,25.90
2018-09-22T13:07:53.867Z,25.90
2018-09-22T13:08:56.876Z,25.90
2018-09-22T13:09:59.844Z,25.90
2018-09-22T13:11:02.803Z,25.90
2018-09-22T13:12:06.025Z,25.90
2018-09-22T13:13:09.027Z,25.90
2018-09-22T13:14:11.992Z,25.90
2018-09-22T13:15:14.972Z,25.90
2018-09-22T13:16:17.960Z,25.90
2018-09-22T13:17:20.981Z,25.90
2018-09-22T13:18:23.958Z,25.90
2018-09-22T13:19:26.940Z,25.90
2018-09-22T13:20:29.944Z,25.90
2018-09-22T13:21:32.916Z,25.90
2018-09-22T13:22:36.000Z,25.90
2018-09-22T13:23:39.018Z,25.90
2018-09-22T13:24:41.991Z,25.90
2018-09-22T13:25:45.005Z,25.90
2018-09-22T13:26:48.027Z,25.90
2018-09-22T13:27:50.927Z,25.90
2018-09-22T13:28:53.909Z,25.90
2018-09-22T13:29:56.877Z,25.90
2018-09-22T13:30:59.859Z,25.90
2018-09-22T13:32:02.846Z,25.90
2018-09-22T13:33:05.853Z,25.90
2018-09-22T13:34:08.800Z,25.90
2018-09-22T13:35:11.773Z,25.90
2018-09-22T13:36:14.764Z,25.90
2018-09-22T13:37:17.813Z,25.90
2018-09-22T13:38:20.732Z,25.90
2018-09-22T13:39:23.727Z,25.90
2018-09-22T13:40:26.711Z,25.90
2018-09-22T13:41:29.727Z,26.00